createdAt,value
2023-02-25T00:14:15.225Z,4269.03223
2023-02-25T00:29:17.419Z,3088.61377
2023-02-25T00:44:19.579Z,1880.30139
2023-02-25T00:59:21.794Z,996.57239
2023-02-25T01:14:24.059Z,455.17746
2023-02-25T01:29:26.309Z,129.32619
2023-02-25T01:44:28.826Z,12.67904
2023-02-25T01:59:31.045Z,0
2023-02-25T02:14:33.404Z,0
2023-02-25T02:29:35.664Z,0
2023-02-25T02:44:37.938Z,0
2023-02-25T02:59:40.260Z,0
2023-02-25T03:14:42.606Z,0
2023-02-25T03:29:45.001Z,0
2023-02-25T03:44:47.277Z,0
2023-02-25T03:59:49.535Z,0
2023-02-25T04:14:51.751Z,0
2023-02-25T04:29:54.215Z,0
2023-02-25T04:44:56.465Z,0
2023-02-25T04:59:58.805Z,0
2023-02-25T05:15:01.251Z,0
2023-02-25T05:30:03.448Z,0
2023-02-25T05:45:05.709Z,0
2023-02-25T06:00:07.960Z,0
2023-02-25T06:15:10.189Z,0
2023-02-25T06:30:12.438Z,0
2023-02-25T06:45:14.708Z,0
2023-02-25T07:00:16.915Z,0
2023-02-25T07:15:19.126Z,0
2023-02-25T07:30:21.331Z,0
2023-02-25T07:45:23.583Z,0
2023-02-25T08:00:25.984Z,0
2023-02-25T08:15:28.361Z,0
2023-02-25T08:30:30.647Z,0
2023-02-25T08:45:32.839Z,0
2023-02-25T09:00:35.076Z,0
2023-02-25T09:15:37.424Z,0
2023-02-25T09:30:39.765Z,0
2023-02-25T09:45:42.024Z,0
2023-02-25T10:00:44.462Z,0
2023-02-25T10:15:52.477Z,0
2023-02-25T10:30:55.582Z,0
2023-02-25T10:45:57.839Z,0
2023-02-25T11:01:00.155Z,0
2023-02-25T11:16:02.392Z,0
2023-02-25T11:31:04.705Z,0
2023-02-25T11:46:06.992Z,0
2023-02-25T12:01:10.546Z,0
2023-02-25T12:16:13.967Z,0
2023-02-25T12:31:16.259Z,0
2023-02-25T12:46:18.557Z,0
2023-02-25T13:01:21.043Z,0
2023-02-25T13:16:23.624Z,0
2023-02-25T13:31:26.404Z,0
2023-02-25T13:46:28.834Z,0
2023-02-25T14:01:31.181Z,0
2023-02-25T14:16:33.458Z,8.87533
2023-02-25T14:31:35.795Z,110.30763
2023-02-25T14:46:38.044Z,453.90958
2023-02-25T15:01:40.309Z,1238.74207
2023-02-25T15:16:42.559Z,1511.34131
2023-02-25T15:31:44.859Z,1742.09985
2023-02-25T15:46:47.160Z,2714.58203
2023-02-25T16:01:49.505Z,4334.96289
2023-02-25T16:16:51.757Z,10902.70508
2023-02-25T16:31:54.038Z,7050.81299
2023-02-25T16:46:56.342Z,6619.72559
2023-02-25T17:01:58.671Z,7190.28271
2023-02-25T17:17:00.934Z,8726.98145
2023-02-25T17:32:03.393Z,6230.47949
2023-02-25T17:47:05.666Z,5779.10547
2023-02-25T18:02:07.881Z,8746
2023-02-25T18:17:10.068Z,5744.87207
2023-02-25T18:32:12.966Z,5269.4082
2023-02-25T18:47:15.303Z,5841.23291
2023-02-25T19:02:17.571Z,6892.3252
2023-02-25T19:17:19.867Z,6254.56934
2023-02-25T19:32:22.231Z,5826.01807
2023-02-25T19:47:24.491Z,7611.22656
2023-02-25T20:02:26.884Z,5386.05518
2023-02-25T20:17:29.280Z,5332.80322
2023-02-25T20:32:31.857Z,5309.98096
2023-02-25T20:47:34.077Z,6324.3042
2023-02-25T21:02:36.325Z,10450.06348
2023-02-25T21:17:38.522Z,6368.68066
2023-02-25T21:32:40.719Z,5379.71582
2023-02-25T21:47:43.324Z,4700.11963
2023-02-25T22:02:45.544Z,4336.23096
2023-02-25T22:17:47.767Z,3519.70093
2023-02-25T22:32:49.968Z,2912.375
2023-02-25T22:47:52.200Z,2686.68823
2023-02-25T23:02:54.460Z,2175.7229
2023-02-25T23:17:56.768Z,1733.22449
2023-02-25T23:32:59.034Z,1687.57996
2023-02-25T23:48:01.250Z,1260.29639
